UACC 171800Z 34003MPS 310V010 9999 FEW046CB 18/08 Q1009 NOSIG RMK QFE726/0968
QNH:(hPa/inHg/mmHg)1009 / 29.8 / 757
QFE:(hPa/inHg/mmHg)966 / 28.52 / 724
Temperature18
Dew Point8
Visibility> 10000
Weather
Cloud CoverFEW (4600);
Transition Height10000 m./34000 ft.
Transition LevelFL360
SQUAWK